Time;durP1;ratioP1;P1;durP2;ratioP2;P2;SDS_P1;SDS_P2;PMS_P1;PMS_P2;Temp;Humidity;BMP_temperature;BMP_pressure;BME280_temperature;BME280_humidity;BME280_pressure;Samples;Min_cycle;Max_cycle;Signal;HPM_P1;HPM_P2
2022/06/05 00:01:35;;;;;;;13.50;12.20;;;;;;;20.54;88.71;98162.09;4104514;28;20617;-86
2022/06/05 00:03:45;;;;;;;12.90;11.80;;;;;;;20.55;88.70;98157.59;4126043;28;20638;-86
2022/06/05 00:05:52;;;;;;;13.23;12.13;;;;;;;20.54;89.21;98159.44;4119615;28;20635;-86
2022/06/05 00:08:04;;;;;;;13.80;12.50;;;;;;;20.55;90.18;98150.50;4121365;28;20632;-86
2022/06/05 00:10:14;;;;;;;13.30;12.00;;;;;;;20.56;90.16;98146.84;4124237;28;20631;-85
2022/06/05 00:12:20;;;;;;;12.87;11.70;;;;;;;20.56;88.60;98151.31;4128718;28;20725;-86
2022/06/05 00:14:23;;;;;;;12.97;11.57;;;;;;;20.59;90.12;98167.72;4123670;28;20767;-86
2022/06/05 00:16:28;;;;;;;13.97;12.47;;;;;;;20.60;88.99;98155.31;4134095;28;20686;-86
2022/06/05 00:18:33;;;;;;;13.27;11.87;;;;;;;20.62;88.65;98153.31;4130348;28;21200;-85
2022/06/05 00:20:37;;;;;;;13.00;11.90;;;;;;;20.64;89.16;98162.75;4108017;28;20639;-86
2022/06/05 00:22:40;;;;;;;14.43;12.93;;;;;;;20.65;89.46;98150.31;4122019;28;21071;-86
2022/06/05 00:24:43;;;;;;;13.53;12.17;;;;;;;20.65;89.56;98153.81;4140891;28;20659;-86
2022/06/05 00:26:52;;;;;;;13.63;12.33;;;;;;;20.66;88.83;98136.91;4138821;28;20763;-86
2022/06/05 00:29:03;;;;;;;13.77;12.37;;;;;;;20.66;88.59;98133.41;4128848;28;20657;-86
2022/06/05 00:31:12;;;;;;;13.33;12.20;;;;;;;20.63;89.59;98129.28;4118025;28;20639;-86
2022/06/05 00:33:20;;;;;;;13.20;12.00;;;;;;;20.65;89.42;98127.28;4114655;28;20698;-85
2022/06/05 00:35:30;;;;;;;13.97;12.63;;;;;;;20.66;89.21;98133.41;4110827;28;20613;-86
2022/06/05 00:37:41;;;;;;;14.30;12.90;;;;;;;20.64;88.82;98125.66;4112917;28;20678;-86
2022/06/05 00:39:50;;;;;;;14.07;12.70;;;;;;;20.66;89.53;98128.09;4121230;28;20795;-86
2022/06/05 00:42:00;;;;;;;13.93;12.53;;;;;;;20.63;89.62;98126.63;4102508;28;20692;-86
2022/06/05 00:44:05;;;;;;;13.60;12.30;;;;;;;20.63;89.28;98128.47;4142062;28;20643;-86
2022/06/05 00:46:08;;;;;;;13.20;12.00;;;;;;;20.65;88.75;98134.44;4129372;28;21022;-86
2022/06/05 00:48:12;;;;;;;14.30;12.90;;;;;;;20.61;89.46;98136.59;4128824;28;20626;-86
2022/06/05 00:50:18;;;;;;;14.10;12.80;;;;;;;20.59;88.77;98127.94;4128305;28;20634;-86
2022/06/05 00:52:23;;;;;;;13.13;11.93;;;;;;;20.57;89.41;98124.66;4142287;28;20641;-86
2022/06/05 00:54:27;;;;;;;13.43;12.23;;;;;;;20.59;89.76;98132.44;4117083;28;20669;-86
2022/06/05 00:56:30;;;;;;;13.17;12.00;;;;;;;20.55;88.96;98126.66;4124545;28;20640;-85
2022/06/05 00:58:34;;;;;;;13.13;11.93;;;;;;;20.53;89.18;98127.78;4115882;28;20990;-86
2022/06/05 01:00:39;;;;;;;13.80;12.50;;;;;;;20.55;88.74;98131.09;4126891;28;21001;-86
2022/06/05 01:02:47;;;;;;;13.53;12.33;;;;;;;20.57;88.85;98126.47;4142484;28;20689;-86
2022/06/05 01:04:51;;;;;;;13.77;12.47;;;;;;;20.55;90.00;98129.28;4143462;28;21063;-86
2022/06/05 01:06:54;;;;;;;13.90;12.50;;;;;;;20.56;88.78;98130.94;4129854;28;20713;-86
2022/06/05 01:09:22;;;;;;;13.47;12.27;;;;;;;20.58;88.81;98128.13;4137014;28;20640;-86
2022/06/05 01:11:42;;;;;;;13.73;12.33;;;;;;;20.60;89.19;98132.28;4107544;28;21166;-86
2022/06/05 01:13:56;;;;;;;12.53;11.43;;;;;;;20.59;89.52;98129.78;4123477;28;20691;-86
2022/06/05 01:16:08;;;;;;;14.37;11.97;;;;;;;20.53;88.88;98128.59;4124626;28;20724;-86
2022/06/05 01:18:17;;;;;;;13.30;12.00;;;;;;;20.52;89.24;98131.41;4106744;28;20621;-85
2022/06/05 01:20:31;;;;;;;13.63;12.43;;;;;;;20.47;88.76;98128.44;4107039;28;20633;-86
2022/06/05 01:23:03;;;;;;;13.03;11.83;;;;;;;20.45;88.79;98125.97;4129139;28;20624;-86
2022/06/05 01:25:21;;;;;;;13.03;11.93;;;;;;;20.50;88.67;98120.97;4114398;28;20685;-86
2022/06/05 01:27:28;;;;;;;16.27;12.60;;;;;;;20.53;88.56;98133.91;4119511;28;20648;-86
2022/06/05 01:29:37;;;;;;;13.83;12.43;;;;;;;20.55;87.71;98131.94;4121821;28;20620;-85
2022/06/05 01:31:43;;;;;;;13.43;12.17;;;;;;;20.56;87.85;98130.94;4130159;28;21280;-86
2022/06/05 01:33:52;;;;;;;13.90;12.70;;;;;;;20.59;88.81;98133.25;4121326;28;20628;-87
2022/06/05 01:36:02;;;;;;;13.07;11.80;;;;;;;20.59;88.43;98119.19;4127654;28;20619;-86
2022/06/05 01:38:10;;;;;;;13.73;12.37;;;;;;;20.60;88.82;98126.97;4143577;28;20630;-86
2022/06/05 01:40:17;;;;;;;13.63;12.37;;;;;;;20.61;87.50;98128.63;4140372;28;20626;-86
2022/06/05 01:42:23;;;;;;;13.50;12.30;;;;;;;20.61;88.58;98131.28;4138009;28;20680;-86
2022/06/05 01:44:31;;;;;;;13.97;12.73;;;;;;;20.61;87.91;98133.09;4139581;28;21216;-86
2022/06/05 01:46:37;;;;;;;13.77;12.50;;;;;;;20.62;87.36;98151.47;4109029;28;21055;-86
2022/06/05 01:48:42;;;;;;;14.53;13.03;;;;;;;20.61;88.77;98152.50;4105434;28;21204;-86
2022/06/05 01:50:48;;;;;;;14.03;12.73;;;;;;;20.60;87.32;98144.72;4116443;28;20627;-86
2022/06/05 01:52:56;;;;;;;14.03;12.60;;;;;;;20.59;88.58;98135.91;4110483;28;20739;-86
2022/06/05 01:55:04;;;;;;;14.57;13.20;;;;;;;20.56;88.43;98136.22;4125645;28;20642;-86
2022/06/05 01:57:11;;;;;;;14.37;12.43;;;;;;;20.56;87.61;98136.22;4141338;28;20666;-85
2022/06/05 01:59:37;;;;;;;16.33;12.07;;;;;;;20.55;88.10;98134.59;4121285;28;20623;-85
2022/06/05 02:01:43;;;;;;;14.33;13.00;;;;;;;20.50;88.65;98133.41;4107280;28;20636;-86
2022/06/05 02:03:49;;;;;;;14.33;12.83;;;;;;;20.49;88.68;98132.59;4119161;28;20986;-86
2022/06/05 02:05:55;;;;;;;15.20;12.97;;;;;;;20.49;88.37;98124.66;4123558;28;20628;-86
2022/06/05 02:08:04;;;;;;;13.80;12.50;;;;;;;20.49;89.66;98132.59;4109105;28;20664;-86
2022/06/05 02:10:11;;;;;;;14.60;13.20;;;;;;;20.49;90.35;98132.59;4109715;28;20629;-86
2022/06/05 02:12:14;;;;;;;13.77;12.57;;;;;;;20.48;89.67;98124.81;4125584;28;20648;-87
2022/06/05 02:14:17;;;;;;;14.80;13.50;;;;;;;20.44;89.53;98103.09;4103985;28;21236;-86
2022/06/05 02:16:22;;;;;;;15.00;13.43;;;;;;;20.42;88.91;98083.88;4115054;28;20728;-86
2022/06/05 02:18:26;;;;;;;14.40;13.20;;;;;;;20.44;88.76;98092.50;4122727;28;21271;-86
2022/06/05 02:20:30;;;;;;;14.43;13.13;;;;;;;20.46;89.16;98090.53;4129612;28;20999;-86
2022/06/05 02:22:36;;;;;;;14.37;12.97;;;;;;;20.45;89.40;98083.56;4128332;28;21295;-86
2022/06/05 02:24:39;;;;;;;14.60;13.20;;;;;;;20.45;88.57;98086.22;4125073;28;20664;-86
2022/06/05 02:26:42;;;;;;;13.83;12.53;;;;;;;20.47;88.62;98072.78;4142479;28;20669;-86
2022/06/05 02:28:46;;;;;;;14.47;13.20;;;;;;;20.46;88.80;98069.31;4115122;28;20672;-85
2022/06/05 02:31:14;;;;;;;14.30;12.93;;;;;;;20.44;90.12;98058.03;4124978;28;20731;-86
2022/06/05 02:33:24;;;;;;;15.10;13.70;;;;;;;20.42;89.17;98043.31;4144886;28;20617;-85
2022/06/05 02:35:35;;;;;;;14.60;13.30;;;;;;;20.38;89.57;98049.94;4111514;28;20643;-85
2022/06/05 02:37:46;;;;;;;15.13;13.73;;;;;;;20.33;89.54;98031.88;4138604;28;20623;-85
2022/06/05 02:39:58;;;;;;;15.17;13.77;;;;;;;20.32;89.76;98022.25;4110470;28;20682;-86
2022/06/05 02:42:06;;;;;;;15.67;14.17;;;;;;;20.28;89.76;98019.28;4107565;28;20628;-86
2022/06/05 02:44:31;;;;;;;15.37;14.07;;;;;;;20.27;89.74;97993.81;4119815;28;20682;-85
2022/06/05 02:46:39;;;;;;;15.80;14.30;;;;;;;20.23;89.43;97987.19;4125989;28;20629;-85
2022/06/05 02:48:48;;;;;;;15.60;14.10;;;;;;;20.24;89.41;97965.81;4116627;28;20713;-85
2022/06/05 02:50:56;;;;;;;15.60;14.20;;;;;;;20.24;89.25;97957.06;4138824;28;21229;-85
2022/06/05 02:53:02;;;;;;;14.20;13.00;;;;;;;20.20;89.66;97947.78;4105922;28;20723;-86
2022/06/05 02:55:08;;;;;;;15.67;14.30;;;;;;;20.17;89.20;97945.47;4113461;28;20688;-85
2022/06/05 02:57:13;;;;;;;19.47;14.70;;;;;;;20.16;89.10;97938.50;4105901;28;20630;-85
2022/06/05 02:59:16;;;;;;;14.53;13.00;;;;;;;20.13;88.52;97933.53;4106529;28;21252;-85
2022/06/05 03:03:40;;;;;;;15.30;13.80;;;;;;;20.11;89.47;97922.28;4124425;28;20679;-85
2022/06/05 03:05:45;;;;;;;15.43;14.03;;;;;;;20.06;89.94;97932.56;4104036;28;20640;-85
2022/06/05 03:07:49;;;;;;;14.90;13.60;;;;;;;20.07;89.12;97937.69;4126411;28;20655;-86
2022/06/05 03:09:54;;;;;;;14.57;13.17;;;;;;;20.08;88.33;97943.81;4138877;28;20622;-85
2022/06/05 03:11:57;;;;;;;15.73;14.27;;;;;;;20.07;88.50;97965.97;4141566;28;20818;-86
2022/06/05 03:14:00;;;;;;;14.83;13.63;;;;;;;20.07;89.29;97979.22;4125001;28;20720;-85
2022/06/05 03:16:04;;;;;;;14.60;13.30;;;;;;;20.08;89.49;97984.34;4112339;28;20623;-86
2022/06/05 03:18:07;;;;;;;16.33;14.50;;;;;;;20.12;89.99;97990.16;4137504;28;20627;-85
2022/06/05 03:20:12;;;;;;;14.60;13.30;;;;;;;20.10;89.64;97981.53;4137142;28;20670;-86
2022/06/05 03:22:22;;;;;;;15.23;13.93;;;;;;;20.10;89.88;97966.50;4137043;28;20672;-86
2022/06/05 03:24:31;;;;;;;14.70;13.40;;;;;;;20.12;88.24;97958.38;4125307;28;20640;-86
2022/06/05 03:26:35;;;;;;;13.53;12.33;;;;;;;20.14;88.82;97966.97;4130954;28;20634;-85
2022/06/05 03:28:38;;;;;;;14.30;13.00;;;;;;;20.14;89.27;97964.34;4138915;28;20729;-85
2022/06/05 03:30:42;;;;;;;14.30;13.00;;;;;;;20.17;88.41;97970.13;4122381;28;20670;-86
2022/06/05 03:32:46;;;;;;;14.70;13.30;;;;;;;20.17;89.42;97964.00;4130833;28;20687;-86
2022/06/05 03:34:50;;;;;;;14.33;13.13;;;;;;;20.18;88.77;97963.84;4129103;28;21135;-86
2022/06/05 03:36:53;;;;;;;14.17;12.83;;;;;;;20.22;88.36;97953.72;4136228;28;20633;-85
2022/06/05 03:38:57;;;;;;;13.83;12.63;;;;;;;20.21;87.13;97949.44;4140274;28;20632;-85
2022/06/05 03:41:01;;;;;;;14.20;12.80;;;;;;;20.22;88.83;97953.72;4124180;28;21169;-86
2022/06/05 03:43:04;;;;;;;13.83;12.63;;;;;;;20.23;87.03;97947.44;4125123;28;20639;-86
2022/06/05 03:45:11;;;;;;;13.90;12.63;;;;;;;20.18;86.97;97947.94;4141867;28;20671;-86
2022/06/05 03:47:15;;;;;;;13.93;12.73;;;;;;;20.20;88.27;97953.06;4130966;28;20635;-86
2022/06/05 03:49:18;;;;;;;13.50;12.40;;;;;;;20.20;87.14;97947.78;4132470;28;20712;-85
2022/06/05 03:51:23;;;;;;;13.60;12.40;;;;;;;20.23;87.87;97940.31;4114142;28;21180;-86
2022/06/05 03:53:26;;;;;;;13.97;12.77;;;;;;;20.27;86.47;97948.78;4126339;28;21252;-86
2022/06/05 03:55:31;;;;;;;13.10;12.00;;;;;;;20.26;87.41;97952.41;4141905;28;20742;-86
2022/06/05 03:57:35;;;;;;;13.23;12.10;;;;;;;20.26;87.30;97960.34;4123548;28;20629;-86
2022/06/05 03:59:38;;;;;;;14.27;12.77;;;;;;;20.23;85.80;97952.75;4106495;28;20656;-87
2022/06/05 04:01:41;;;;;;;13.97;12.60;;;;;;;20.22;85.83;97953.72;4125102;28;20659;-86
2022/06/05 04:03:45;;;;;;;13.33;12.10;;;;;;;20.20;85.90;97947.78;4113858;28;21256;-85
2022/06/05 04:05:52;;;;;;;13.10;12.00;;;;;;;20.17;85.36;97961.34;4127356;28;20623;-86
2022/06/05 04:07:55;;;;;;;13.60;12.30;;;;;;;20.13;85.15;97962.66;4108997;28;20673;-86
2022/06/05 04:09:58;;;;;;;13.40;12.20;;;;;;;20.13;86.28;97967.97;4128871;28;21053;-84
2022/06/05 04:12:03;;;;;;;13.30;12.03;;;;;;;20.10;86.05;97986.84;4123604;28;21086;-85
2022/06/05 04:14:08;;;;;;;13.70;12.60;;;;;;;20.09;86.93;97996.63;4124970;28;20640;-86
2022/06/05 04:16:12;;;;;;;14.30;12.80;;;;;;;20.11;86.46;98004.41;4122177;28;20638;-86
2022/06/05 04:18:15;;;;;;;13.37;12.23;;;;;;;20.13;86.67;98021.78;4112365;28;20741;-85
2022/06/05 04:20:19;;;;;;;13.60;12.30;;;;;;;20.14;87.11;98028.72;4130305;28;20637;-85
2022/06/05 04:22:22;;;;;;;13.53;12.20;;;;;;;20.19;88.89;98036.19;4123428;28;20718;-86
2022/06/05 04:24:37;;;;;;;13.27;11.97;;;;;;;20.19;88.32;98033.53;4143213;28;20641;-86
2022/06/05 04:26:42;;;;;;;14.50;13.20;;;;;;;20.17;87.21;98035.53;4123584;28;20630;-86
2022/06/05 04:28:46;;;;;;;13.03;11.83;;;;;;;20.15;87.32;98038.34;4120265;28;21118;-86
2022/06/05 04:30:49;;;;;;;13.47;12.37;;;;;;;20.10;87.35;98031.88;4120550;28;20667;-86
2022/06/05 04:32:53;;;;;;;14.73;13.43;;;;;;;20.05;86.89;98031.53;4120280;28;21199;-86
2022/06/05 04:34:56;;;;;;;13.70;12.50;;;;;;;20.00;87.65;98034.69;4111318;28;20966;-86
2022/06/05 04:37:08;;;;;;;13.93;12.63;;;;;;;19.98;88.10;98027.88;4120855;28;20647;-85
2022/06/05 04:39:11;;;;;;;13.43;12.33;;;;;;;19.90;87.81;98017.28;4121136;28;20632;-85
2022/06/05 04:41:15;;;;;;;14.30;12.90;;;;;;;19.88;89.12;98004.22;4120302;28;20629;-86
2022/06/05 04:43:18;;;;;;;15.03;13.73;;;;;;;19.93;89.45;98006.38;4121962;28;20633;-86
2022/06/05 04:45:25;;;;;;;15.40;13.60;;;;;;;19.93;89.38;98001.06;4103344;28;20893;-86
2022/06/05 04:47:29;;;;;;;15.17;13.87;;;;;;;19.92;89.53;97994.13;4113863;28;21028;-86
2022/06/05 04:49:34;;;;;;;15.33;14.03;;;;;;;19.94;92.67;97998.25;4107902;28;21130;-86
2022/06/05 04:51:39;;;;;;;15.83;14.23;;;;;;;19.96;93.59;97992.81;4117144;28;20635;-86
2022/06/05 04:53:43;;;;;;;16.10;14.50;;;;;;;19.95;93.49;97997.28;4121259;28;20629;-86
2022/06/05 04:55:47;;;;;;;16.30;14.70;;;;;;;19.94;93.88;98005.41;4126878;28;20641;-86
2022/06/05 04:57:50;;;;;;;16.17;14.60;;;;;;;19.94;93.31;98011.50;4124265;28;21221;-86
2022/06/05 04:59:54;;;;;;;14.83;13.53;;;;;;;19.92;93.55;98012.66;4122987;28;20659;-86
2022/06/05 05:01:59;;;;;;;15.87;14.47;;;;;;;19.89;92.12;98026.22;4119539;28;21248;-86
2022/06/05 05:04:20;;;;;;;15.90;14.47;;;;;;;19.91;93.96;98040.13;4127878;28;20630;-86
2022/06/05 05:06:24;;;;;;;16.17;14.67;;;;;;;19.94;94.37;98037.16;4110070;28;20677;-86
2022/06/05 05:08:27;;;;;;;16.40;14.90;;;;;;;19.95;93.69;98028.22;4114132;28;20651;-86
2022/06/05 05:10:30;;;;;;;15.30;13.90;;;;;;;19.96;94.29;98036.00;4140172;28;20753;-86
2022/06/05 05:12:33;;;;;;;16.03;14.60;;;;;;;19.97;95.47;98044.78;4129975;28;21196;-86
2022/06/05 05:14:37;;;;;;;15.30;13.90;;;;;;;19.96;95.05;98043.13;4113658;28;20626;-87
2022/06/05 05:16:40;;;;;;;15.13;13.83;;;;;;;19.94;92.55;98048.56;4121341;28;20635;-86
2022/06/05 05:18:45;;;;;;;16.07;14.67;;;;;;;19.85;94.19;98057.47;4117528;28;20640;-86
2022/06/05 05:21:12;;;;;;;16.50;15.10;;;;;;;19.82;94.60;98066.75;4138594;28;20659;-86
2022/06/05 05:23:36;;;;;;;16.90;15.40;;;;;;;19.83;94.31;98093.06;4139318;28;20635;-86
2022/06/05 05:25:40;;;;;;;15.97;14.50;;;;;;;19.81;95.97;98102.97;4113765;28;20610;-86
2022/06/05 05:27:44;;;;;;;16.03;14.67;;;;;;;19.80;94.13;98116.34;4124559;28;20635;-86
2022/06/05 05:29:47;;;;;;;15.93;14.53;;;;;;;19.78;94.89;98127.09;4135708;28;20772;-86
2022/06/05 05:31:52;;;;;;;15.97;14.57;;;;;;;19.78;95.71;98135.06;4111053;28;20632;-86
2022/06/05 05:33:56;;;;;;;16.17;14.80;;;;;;;19.78;95.68;98135.06;4123581;28;21263;-86
2022/06/05 05:35:59;;;;;;;15.10;13.70;;;;;;;19.78;94.75;98148.28;4113601;28;20625;-86
2022/06/05 05:38:03;;;;;;;16.10;14.70;;;;;;;19.78;95.62;98147.47;4114760;28;20629;-86
2022/06/05 05:42:30;;;;;;;15.53;14.17;;;;;;;19.73;94.09;98147.94;4113447;28;20632;-86
2022/06/05 05:44:36;;;;;;;15.53;14.20;;;;;;;19.72;96.52;98143.63;4144267;28;20644;-86
2022/06/05 05:46:39;;;;;;;15.30;13.90;;;;;;;19.73;94.49;98142.66;4116365;28;20633;-86
2022/06/05 05:48:42;;;;;;;15.67;14.27;;;;;;;19.66;94.39;98130.22;4108758;28;21301;-86
2022/06/05 05:50:47;;;;;;;14.60;13.40;;;;;;;19.61;95.84;98128.03;4110705;28;20698;-85
2022/06/05 05:52:50;;;;;;;16.07;14.67;;;;;;;19.62;95.53;98132.34;4132230;28;20667;-86
2022/06/05 05:54:53;;;;;;;15.97;14.47;;;;;;;19.59;96.07;98130.03;4141765;28;20646;-85
2022/06/05 05:56:57;;;;;;;15.50;14.10;;;;;;;19.58;97.00;98141.59;4126005;28;20658;-85
2022/06/05 05:59:00;;;;;;;15.70;14.30;;;;;;;19.58;96.68;98138.13;4130135;28;20644;-85
2022/06/05 06:01:05;;;;;;;16.40;15.00;;;;;;;19.58;96.24;98138.94;4123934;28;20614;-85
2022/06/05 06:03:08;;;;;;;17.47;15.87;;;;;;;19.58;96.72;98138.13;4103770;28;20723;-85
2022/06/05 06:05:14;;;;;;;17.17;15.57;;;;;;;19.58;97.67;98138.13;4130388;28;20675;-85
2022/06/05 06:07:20;;;;;;;16.33;14.87;;;;;;;19.57;97.25;98142.56;4104695;28;20990;-85
2022/06/05 06:09:23;;;;;;;16.53;15.03;;;;;;;19.56;98.34;98127.69;4128143;28;21046;-85
2022/06/05 06:11:26;;;;;;;16.57;15.03;;;;;;;19.57;98.80;98117.94;4124793;28;21151;-85
2022/06/05 06:13:30;;;;;;;15.80;14.40;;;;;;;19.56;98.25;98111.81;4115042;28;20619;-85
2022/06/05 06:15:33;;;;;;;16.17;14.47;;;;;;;19.55;97.38;98107.50;4121425;28;21112;-85
2022/06/05 06:18:02;;;;;;;16.13;14.67;;;;;;;19.53;96.66;98092.75;4110749;28;20633;-86
2022/06/05 06:20:07;;;;;;;15.20;13.80;;;;;;;19.48;95.90;98085.34;4104978;28;21255;-86
2022/06/05 06:22:10;;;;;;;15.43;14.00;;;;;;;19.41;96.11;98094.88;4111184;28;20720;-86
2022/06/05 06:24:15;;;;;;;16.03;14.63;;;;;;;19.39;97.62;98118.03;4113056;28;20631;-86
2022/06/05 06:26:18;;;;;;;16.80;15.00;;;;;;;19.39;96.13;98141.00;4141322;28;20637;-85
2022/06/05 06:28:41;;;;;;;16.17;14.70;;;;;;;19.37;97.79;98165.97;4138228;28;21314;-85
2022/06/05 06:30:44;;;;;;;16.93;15.33;;;;;;;19.34;98.37;98175.03;4125681;28;20658;-85
2022/06/05 06:32:47;;;;;;;17.80;16.00;;;;;;;19.34;98.10;98198.84;4126460;28;21189;-85
2022/06/05 06:34:50;;;;;;;19.80;17.90;;;;;;;19.29;99.45;98222.31;4129927;28;20642;-85
2022/06/05 06:36:53;;;;;;;19.83;17.93;;;;;;;19.23;98.79;98227.38;4118223;28;20627;-86
2022/06/05 06:38:57;;;;;;;19.33;17.60;;;;;;;19.18;98.38;98214.59;4125517;28;20684;-86
2022/06/05 06:41:04;;;;;;;18.17;16.57;;;;;;;19.12;98.61;98215.22;4112839;28;20620;-85
2022/06/05 06:43:08;;;;;;;18.63;16.90;;;;;;;19.08;98.85;98213.06;4140327;28;21077;-87
2022/06/05 06:45:12;;;;;;;18.90;17.10;;;;;;;19.04;99.85;98201.94;4142279;28;21178;-87
2022/06/05 06:47:15;;;;;;;20.47;18.50;;;;;;;18.93;99.94;98182.84;4125154;28;20630;-86
2022/06/05 06:49:18;;;;;;;19.97;17.93;;;;;;;18.85;100.00;98190.69;4131070;28;20772;-87
2022/06/05 06:51:21;;;;;;;19.60;17.60;;;;;;;18.79;100.00;98175.44;4109679;28;20651;-87
2022/06/05 06:53:43;;;;;;;18.00;16.23;;;;;;;18.73;100.00;98162.81;4133938;28;20777;-86
2022/06/05 06:55:46;;;;;;;20.00;18.10;;;;;;;18.67;100.00;98150.25;4131364;28;21231;-86
2022/06/05 06:57:53;;;;;;;18.50;16.70;;;;;;;18.67;100.00;98123.81;4140065;28;20624;-86
2022/06/05 06:59:57;;;;;;;16.77;15.13;;;;;;;18.60;100.00;98103.44;4140363;28;20647;-85
2022/06/05 07:02:00;;;;;;;15.90;14.50;;;;;;;18.58;100.00;98073.69;4116382;28;20629;-86
2022/06/05 07:04:03;;;;;;;15.70;14.30;;;;;;;18.59;100.00;98056.88;4101064;28;21108;-86
2022/06/05 07:06:07;;;;;;;15.10;13.70;;;;;;;18.59;100.00;98049.75;4139927;28;20723;-85
2022/06/05 07:08:11;;;;;;;16.37;14.83;;;;;;;18.61;100.00;98050.44;4139562;28;20739;-85
2022/06/05 07:10:14;;;;;;;12.90;11.70;;;;;;;18.60;100.00;98032.13;4109157;28;20734;-85
2022/06/05 07:12:18;;;;;;;10.40;9.40;;;;;;;18.62;100.00;98016.91;4113913;28;20637;-85
2022/06/05 07:14:22;;;;;;;10.63;9.63;;;;;;;18.67;100.00;98019.91;4114553;28;20652;-85
2022/06/05 07:16:26;;;;;;;10.80;9.63;;;;;;;18.71;100.00;98003.59;4105150;28;20656;-86
2022/06/05 07:18:29;;;;;;;14.20;9.10;;;;;;;18.73;100.00;98001.63;4140180;28;20665;-85
2022/06/05 07:20:33;;;;;;;10.50;9.47;;;;;;;18.74;100.00;97998.00;4118712;28;20712;-85
2022/06/05 07:22:38;;;;;;;10.73;9.33;;;;;;;18.73;100.00;98001.63;4122450;28;20656;-85
2022/06/05 07:24:41;;;;;;;10.93;9.93;;;;;;;18.72;100.00;97992.03;4124987;28;20633;-86
2022/06/05 07:26:49;;;;;;;10.07;9.17;;;;;;;18.71;100.00;97990.38;4092965;28;20648;-85
2022/06/05 07:28:53;;;;;;;8.57;7.77;;;;;;;18.72;100.00;97975.34;4123232;28;20644;-85
2022/06/05 07:31:00;;;;;;;7.13;6.43;;;;;;;18.73;99.81;97959.31;4127516;28;20667;-85
2022/06/05 07:33:03;;;;;;;7.70;5.73;;;;;;;18.81;99.21;97955.91;4114110;28;21185;-85
2022/06/05 07:35:06;;;;;;;8.40;7.53;;;;;;;18.81;100.00;97962.03;4129788;28;20639;-85
2022/06/05 07:37:10;;;;;;;8.60;7.70;;;;;;;18.78;100.00;97959.69;4124250;28;20736;-85
2022/06/05 07:39:36;;;;;;;9.93;8.00;;;;;;;18.76;100.00;97951.09;4128500;28;20630;-85
2022/06/05 07:41:44;;;;;;;8.40;7.60;;;;;;;18.66;100.00;97947.75;4110090;28;20626;-85
2022/06/05 07:43:48;;;;;;;9.23;8.27;;;;;;;18.65;100.00;97938.16;4114254;28;20661;-87
2022/06/05 07:45:51;;;;;;;8.10;7.13;;;;;;;18.59;100.00;97946.72;4105998;28;20699;-86
2022/06/05 07:47:56;;;;;;;8.90;8.00;;;;;;;18.56;100.00;97939.09;4103861;28;20627;-85
2022/06/05 07:49:59;;;;;;;7.80;6.90;;;;;;;18.52;100.00;97961.56;4120070;28;21218;-85
2022/06/05 07:54:30;;;;;;;8.77;6.53;;;;;;;18.52;100.00;97918.44;4127470;28;20628;-85
2022/06/05 07:56:34;;;;;;;11.23;7.73;;;;;;;18.49;100.00;97911.69;4138584;28;20632;-86
2022/06/05 07:58:57;;;;;;;11.63;8.77;;;;;;;18.38;100.00;97887.34;4106749;28;21002;-85
2022/06/05 08:01:20;;;;;;;9.23;7.00;;;;;;;18.22;100.00;97865.28;4138298;28;20627;-85
2022/06/05 08:03:25;;;;;;;7.20;5.60;;;;;;;18.09;100.00;97863.03;4102705;28;21213;-85
2022/06/05 08:05:28;;;;;;;8.63;5.73;;;;;;;18.00;100.00;97823.56;4127444;28;20637;-85
2022/06/05 08:07:33;;;;;;;4.97;4.30;;;;;;;17.97;100.00;97781.66;4126619;28;21047;-85
2022/06/05 08:09:36;;;;;;;7.40;4.37;;;;;;;17.92;100.00;97735.59;4110631;28;21209;-84
2022/06/05 08:11:42;;;;;;;7.77;4.30;;;;;;;17.95;100.00;97693.88;4127923;28;20663;-85
2022/06/05 08:13:45;;;;;;;5.27;3.90;;;;;;;17.97;100.00;97707.75;4138214;28;20729;-86
2022/06/05 08:15:49;;;;;;;6.20;4.40;;;;;;;17.96;100.00;97724.56;4104920;28;21087;-86
2022/06/05 08:17:52;;;;;;;4.63;3.93;;;;;;;17.98;100.00;97725.22;4128784;28;20662;-85
2022/06/05 08:19:57;;;;;;;8.10;4.17;;;;;;;18.02;100.00;97740.59;4131643;28;20640;-85
2022/06/05 08:22:00;;;;;;;9.97;4.30;;;;;;;18.08;100.00;97790.09;4117397;28;21099;-85
2022/06/05 08:24:04;;;;;;;7.10;5.90;;;;;;;18.08;100.00;97864.03;4139002;28;20648;-85
2022/06/05 08:26:08;;;;;;;8.20;5.13;;;;;;;18.13;100.00;97866.22;4121323;28;20631;-85
2022/06/05 08:28:12;;;;;;;5.37;4.67;;;;;;;18.20;100.00;97856.72;4122033;28;20644;-85
2022/06/05 08:30:15;;;;;;;5.03;4.03;;;;;;;18.25;100.00;97857.06;4121993;28;21206;-85
2022/06/05 08:32:18;;;;;;;8.67;4.60;;;;;;;18.37;100.00;97851.31;4138662;28;20739;-85
2022/06/05 08:34:23;;;;;;;6.57;4.07;;;;;;;18.49;100.00;97874.69;4127673;28;20637;-84
2022/06/05 08:36:28;;;;;;;5.87;4.50;;;;;;;18.63;100.00;97873.25;4146261;28;21102;-85
2022/06/05 08:43:55;;;;;;;5.70;5.10;;;;;;;19.02;100.00;97889.28;4136462;28;20637;-84
2022/06/05 08:46:03;;;;;;;5.50;4.80;;;;;;;19.18;100.00;97901.69;4125797;28;21289;-84
2022/06/05 08:48:11;;;;;;;6.13;5.10;;;;;;;19.30;100.00;97906.50;4123993;28;20617;-84
2022/06/05 08:50:21;;;;;;;8.80;5.63;;;;;;;19.44;100.00;97909.34;4104275;28;20673;-85
2022/06/05 08:52:32;;;;;;;6.10;5.50;;;;;;;19.61;100.00;97916.31;4129298;28;21243;-85
2022/06/05 08:54:39;;;;;;;6.30;5.70;;;;;;;19.77;100.00;97916.34;4127014;28;20637;-84
2022/06/05 08:56:45;;;;;;;6.83;6.13;;;;;;;19.97;100.00;97922.97;4138266;28;21169;-85
2022/06/05 08:58:52;;;;;;;10.10;6.27;;;;;;;20.15;100.00;97931.56;4124950;28;20648;-85
2022/06/05 09:00:57;;;;;;;7.73;6.40;;;;;;;20.35;100.00;97926.53;4111029;28;20638;-84
2022/06/05 09:03:07;;;;;;;9.03;6.50;;;;;;;20.54;100.00;97925.34;4135512;28;20632;-84
2022/06/05 09:05:18;;;;;;;7.07;6.23;;;;;;;20.76;100.00;97933.41;4136360;28;20626;-84
2022/06/05 09:07:25;;;;;;;7.10;6.10;;;;;;;21.04;100.00;97926.69;4101253;28;21000;-84
2022/06/05 09:09:46;;;;;;;7.80;5.87;;;;;;;21.27;99.24;97920.41;4107101;28;20773;-84
2022/06/05 09:11:52;;;;;;;6.80;6.13;;;;;;;21.45;98.87;97929.78;4127227;28;20692;-84
2022/06/05 09:14:04;;;;;;;6.37;5.00;;;;;;;21.58;97.28;97932.69;4123224;28;20631;-84
2022/06/05 09:16:11;;;;;;;8.43;5.27;;;;;;;21.69;97.29;97934.09;4108597;28;20624;-84
2022/06/05 09:18:18;;;;;;;6.50;4.60;;;;;;;21.78;96.16;97936.50;4138032;28;20713;-84
2022/06/05 09:20:27;;;;;;;5.23;3.90;;;;;;;21.78;92.77;97940.03;4127460;28;20591;-84
2022/06/05 09:22:34;;;;;;;7.20;4.17;;;;;;;21.76;91.81;97947.31;4129061;28;20667;-84
2022/06/05 09:24:50;;;;;;;6.80;4.70;;;;;;;21.76;91.08;97945.69;4130504;28;20734;-84
2022/06/05 09:26:58;;;;;;;5.63;4.97;;;;;;;21.77;90.64;97948.16;4137798;28;20978;-84
2022/06/05 09:29:15;;;;;;;5.73;4.80;;;;;;;21.84;92.21;97943.78;4126139;28;20651;-84
2022/06/05 09:32:00;;;;;;;7.43;4.90;;;;;;;21.86;90.48;97941.75;4143483;28;20644;-84
2022/06/05 09:34:11;;;;;;;5.63;5.03;;;;;;;21.88;89.53;97926.50;4126716;28;20643;-85
2022/06/05 09:36:16;;;;;;;5.00;4.50;;;;;;;21.82;88.14;97927.19;4100684;28;20630;-84
2022/06/05 09:38:23;;;;;;;8.80;4.60;;;;;;;21.81;89.97;97922.88;4103121;28;20664;-84
2022/06/05 09:40:30;;;;;;;6.87;4.90;;;;;;;21.77;88.82;97924.25;4122186;28;20638;-84
2022/06/05 09:42:53;;;;;;;8.60;4.20;;;;;;;21.71;88.47;97917.00;4131243;28;20622;-84
2022/06/05 09:45:06;;;;;;;4.70;4.20;;;;;;;21.69;88.58;97929.59;4103574;28;20668;-84
2022/06/05 09:47:17;;;;;;;4.40;4.00;;;;;;;21.58;87.46;97910.63;4121386;28;21215;-84
2022/06/05 09:49:23;;;;;;;4.87;4.17;;;;;;;21.59;88.62;97930.84;4137702;28;20994;-85
2022/06/05 09:51:26;;;;;;;4.83;4.33;;;;;;;21.62;89.46;97931.34;4114637;28;20652;-84
2022/06/05 09:53:32;;;;;;;4.80;4.40;;;;;;;21.72;89.69;97945.19;4134910;28;20668;-84
2022/06/05 09:55:46;;;;;;;5.33;4.30;;;;;;;21.84;89.75;97939.28;4123885;28;20626;-84
2022/06/05 10:00:31;;;;;;;4.33;3.70;;;;;;;22.04;87.31;97944.94;4131959;28;20623;-84